メインページ
METAR-TAF:

METAR-TAF

空港 :

Elk Valley

Sparwood, ブリティッシュコロンビア州, カナダ

緯度: 49-45N, 経度: 114-53W, 海抜: 1138m

現時点の気象観測

当レポートは9時間39分前の00:00(UTC)に作成
無風
気温 0°C
湿度 86%
気圧 1025 hPa
視程: 24.1km
高度1500ftの雲はほとんどない
高度2700ftの曇り

METAR: CWSW 140000Z 00000KT 15SM FEW015 OVC027 M00/M02 A3026 RMK SF1SC7 LAST STFD OBS/NXT 141400Z SLP295

時間: 02:39 (09:39 UTC)


TAF: 見つかりません

4,000以上の空港の気象観測と天気予報(METAR報とTAF報)

利用可能な観測所は地図上に黄色い丸と赤い丸で示す。

丸の上にカーソルを重ねると観測所名を参照できる。

次にクリックすると気象観測と天気予報を参照できる。

マップの切り替え:黒色「×」印の緑ボタンをクリックして拡大、「-」印の緑ボタンをクリックして縮小、緑色の三角印をクリックして隣りの地図に切り替え


METAR-TAF: